sensor_id;sensor_type;location;lat;lon;timestamp;P1;durP1;ratioP1;P2;durP2;ratioP2
22650;SDS011;11492;42.646;23.400;2023-06-10T00:02:20;8.52;;;4.63;;
22650;SDS011;11492;42.646;23.400;2023-06-10T00:04:45;9.60;;;4.78;;
22650;SDS011;11492;42.646;23.400;2023-06-10T00:07:11;14.07;;;5.63;;
22650;SDS011;11492;42.646;23.400;2023-06-10T00:09:37;9.68;;;4.70;;
22650;SDS011;11492;42.646;23.400;2023-06-10T00:12:04;8.75;;;4.68;;
22650;SDS011;11492;42.646;23.400;2023-06-10T00:14:31;19.10;;;4.95;;
22650;SDS011;11492;42.646;23.400;2023-06-10T00:16:57;13.43;;;5.10;;
22650;SDS011;11492;42.646;23.400;2023-06-10T00:19:22;8.23;;;4.90;;
22650;SDS011;11492;42.646;23.400;2023-06-10T00:21:50;9.93;;;4.90;;
22650;SDS011;11492;42.646;23.400;2023-06-10T00:24:17;13.43;;;5.05;;
22650;SDS011;11492;42.646;23.400;2023-06-10T00:26:42;16.48;;;5.53;;
22650;SDS011;11492;42.646;23.400;2023-06-10T00:29:08;9.98;;;5.60;;
22650;SDS011;11492;42.646;23.400;2023-06-10T00:31:34;16.80;;;5.70;;
22650;SDS011;11492;42.646;23.400;2023-06-10T00:34:01;8.10;;;5.75;;
22650;SDS011;11492;42.646;23.400;2023-06-10T00:36:28;13.35;;;5.80;;
22650;SDS011;11492;42.646;23.400;2023-06-10T00:38:53;14.02;;;5.75;;
22650;SDS011;11492;42.646;23.400;2023-06-10T00:41:19;17.73;;;6.10;;
22650;SDS011;11492;42.646;23.400;2023-06-10T00:43:45;9.52;;;5.45;;
22650;SDS011;11492;42.646;23.400;2023-06-10T00:46:11;9.32;;;6.05;;
22650;SDS011;11492;42.646;23.400;2023-06-10T00:48:37;12.10;;;5.78;;
22650;SDS011;11492;42.646;23.400;2023-06-10T00:51:04;14.70;;;6.50;;
22650;SDS011;11492;42.646;23.400;2023-06-10T00:53:30;11.65;;;6.25;;
22650;SDS011;11492;42.646;23.400;2023-06-10T00:55:57;13.00;;;6.95;;
22650;SDS011;11492;42.646;23.400;2023-06-10T00:58:23;10.93;;;6.72;;
22650;SDS011;11492;42.646;23.400;2023-06-10T01:00:50;13.50;;;6.75;;
22650;SDS011;11492;42.646;23.400;2023-06-10T01:03:16;16.42;;;6.60;;
22650;SDS011;11492;42.646;23.400;2023-06-10T01:05:42;10.45;;;5.90;;
22650;SDS011;11492;42.646;23.400;2023-06-10T01:10:54;11.35;;;5.75;;
22650;SDS011;11492;42.646;23.400;2023-06-10T01:13:25;8.80;;;5.90;;
22650;SDS011;11492;42.646;23.400;2023-06-10T01:15:54;11.10;;;5.95;;
22650;SDS011;11492;42.646;23.400;2023-06-10T01:18:21;17.90;;;6.35;;
22650;SDS011;11492;42.646;23.400;2023-06-10T01:20:47;9.13;;;6.20;;
22650;SDS011;11492;42.646;23.400;2023-06-10T01:23:13;14.90;;;6.55;;
22650;SDS011;11492;42.646;23.400;2023-06-10T01:25:41;14.35;;;6.95;;
22650;SDS011;11492;42.646;23.400;2023-06-10T01:31:21;10.27;;;6.65;;
22650;SDS011;11492;42.646;23.400;2023-06-10T01:33:33;15.45;;;7.15;;
22650;SDS011;11492;42.646;23.400;2023-06-10T01:36:03;15.23;;;7.20;;
22650;SDS011;11492;42.646;23.400;2023-06-10T01:38:32;14.85;;;7.00;;
22650;SDS011;11492;42.646;23.400;2023-06-10T01:41:01;12.63;;;7.22;;
22650;SDS011;11492;42.646;23.400;2023-06-10T01:43:28;13.48;;;7.30;;
22650;SDS011;11492;42.646;23.400;2023-06-10T01:45:53;14.80;;;7.20;;
22650;SDS011;11492;42.646;23.400;2023-06-10T01:48:19;13.85;;;8.20;;
22650;SDS011;11492;42.646;23.400;2023-06-10T01:50:44;17.63;;;8.00;;
22650;SDS011;11492;42.646;23.400;2023-06-10T01:53:10;17.98;;;8.60;;
22650;SDS011;11492;42.646;23.400;2023-06-10T01:55:36;16.20;;;8.55;;
22650;SDS011;11492;42.646;23.400;2023-06-10T01:58:01;16.83;;;8.07;;
22650;SDS011;11492;42.646;23.400;2023-06-10T02:00:27;11.82;;;8.15;;
22650;SDS011;11492;42.646;23.400;2023-06-10T02:02:53;14.85;;;8.50;;
22650;SDS011;11492;42.646;23.400;2023-06-10T02:05:18;16.48;;;8.48;;
22650;SDS011;11492;42.646;23.400;2023-06-10T02:07:44;14.75;;;8.60;;
22650;SDS011;11492;42.646;23.400;2023-06-10T02:10:09;16.60;;;8.93;;
22650;SDS011;11492;42.646;23.400;2023-06-10T02:12:35;16.33;;;9.02;;
22650;SDS011;11492;42.646;23.400;2023-06-10T02:15:00;19.70;;;9.82;;
22650;SDS011;11492;42.646;23.400;2023-06-10T02:17:25;19.08;;;9.18;;
22650;SDS011;11492;42.646;23.400;2023-06-10T02:19:51;15.35;;;10.05;;
22650;SDS011;11492;42.646;23.400;2023-06-10T02:22:20;22.23;;;9.93;;
22650;SDS011;11492;42.646;23.400;2023-06-10T02:24:46;22.00;;;10.75;;
22650;SDS011;11492;42.646;23.400;2023-06-10T02:27:12;16.73;;;10.85;;
22650;SDS011;11492;42.646;23.400;2023-06-10T02:29:37;20.67;;;11.38;;
22650;SDS011;11492;42.646;23.400;2023-06-10T02:32:03;18.80;;;11.50;;
22650;SDS011;11492;42.646;23.400;2023-06-10T02:34:28;20.77;;;11.27;;
22650;SDS011;11492;42.646;23.400;2023-06-10T02:36:54;28.15;;;11.88;;
22650;SDS011;11492;42.646;23.400;2023-06-10T02:39:20;22.10;;;10.85;;
22650;SDS011;11492;42.646;23.400;2023-06-10T02:41:46;19.25;;;10.57;;
22650;SDS011;11492;42.646;23.400;2023-06-10T02:44:11;18.52;;;9.70;;
22650;SDS011;11492;42.646;23.400;2023-06-10T02:46:37;16.10;;;8.77;;
22650;SDS011;11492;42.646;23.400;2023-06-10T02:49:02;14.85;;;8.88;;
22650;SDS011;11492;42.646;23.400;2023-06-10T02:51:28;16.35;;;9.48;;
22650;SDS011;11492;42.646;23.400;2023-06-10T02:53:53;15.98;;;9.32;;
22650;SDS011;11492;42.646;23.400;2023-06-10T02:56:19;15.32;;;9.25;;
22650;SDS011;11492;42.646;23.400;2023-06-10T02:58:45;16.15;;;9.27;;
22650;SDS011;11492;42.646;23.400;2023-06-10T03:01:10;15.13;;;9.15;;
22650;SDS011;11492;42.646;23.400;2023-06-10T03:03:36;15.80;;;9.00;;
22650;SDS011;11492;42.646;23.400;2023-06-10T03:06:05;14.20;;;8.80;;
22650;SDS011;11492;42.646;23.400;2023-06-10T03:08:31;15.48;;;8.60;;
22650;SDS011;11492;42.646;23.400;2023-06-10T03:10:56;14.43;;;9.85;;
22650;SDS011;11492;42.646;23.400;2023-06-10T03:13:23;15.75;;;9.48;;
22650;SDS011;11492;42.646;23.400;2023-06-10T03:15:48;14.48;;;9.13;;
22650;SDS011;11492;42.646;23.400;2023-06-10T03:18:14;18.65;;;9.13;;
22650;SDS011;11492;42.646;23.400;2023-06-10T03:20:40;13.88;;;8.60;;
22650;SDS011;11492;42.646;23.400;2023-06-10T03:23:06;26.38;;;9.13;;
22650;SDS011;11492;42.646;23.400;2023-06-10T03:25:33;21.00;;;9.32;;
22650;SDS011;11492;42.646;23.400;2023-06-10T03:27:58;16.13;;;9.40;;
22650;SDS011;11492;42.646;23.400;2023-06-10T03:30:24;14.40;;;8.75;;
22650;SDS011;11492;42.646;23.400;2023-06-10T03:32:49;17.40;;;9.40;;
22650;SDS011;11492;42.646;23.400;2023-06-10T03:35:14;11.90;;;8.63;;
22650;SDS011;11492;42.646;23.400;2023-06-10T03:37:40;20.65;;;9.60;;
22650;SDS011;11492;42.646;23.400;2023-06-10T03:40:06;19.20;;;9.70;;
22650;SDS011;11492;42.646;23.400;2023-06-10T03:42:33;17.25;;;9.23;;
22650;SDS011;11492;42.646;23.400;2023-06-10T03:44:59;18.42;;;9.43;;
22650;SDS011;11492;42.646;23.400;2023-06-10T03:47:25;15.85;;;9.68;;
22650;SDS011;11492;42.646;23.400;2023-06-10T03:49:50;20.30;;;9.15;;
22650;SDS011;11492;42.646;23.400;2023-06-10T03:52:17;21.05;;;9.93;;
22650;SDS011;11492;42.646;23.400;2023-06-10T03:54:42;19.73;;;9.88;;
22650;SDS011;11492;42.646;23.400;2023-06-10T03:57:08;13.52;;;9.55;;
22650;SDS011;11492;42.646;23.400;2023-06-10T03:59:33;20.45;;;9.60;;
22650;SDS011;11492;42.646;23.400;2023-06-10T04:01:59;14.32;;;10.23;;
22650;SDS011;11492;42.646;23.400;2023-06-10T04:04:25;18.50;;;12.40;;
22650;SDS011;11492;42.646;23.400;2023-06-10T04:06:50;24.20;;;12.27;;
22650;SDS011;11492;42.646;23.400;2023-06-10T04:09:16;16.80;;;11.63;;
22650;SDS011;11492;42.646;23.400;2023-06-10T04:11:42;19.17;;;11.60;;
22650;SDS011;11492;42.646;23.400;2023-06-10T04:14:07;25.35;;;13.07;;
22650;SDS011;11492;42.646;23.400;2023-06-10T04:16:33;16.13;;;11.18;;
22650;SDS011;11492;42.646;23.400;2023-06-10T04:19:00;24.58;;;13.88;;
22650;SDS011;11492;42.646;23.400;2023-06-10T04:21:25;23.77;;;13.98;;
22650;SDS011;11492;42.646;23.400;2023-06-10T04:23:51;21.05;;;13.65;;
22650;SDS011;11492;42.646;23.400;2023-06-10T04:26:17;18.33;;;12.63;;
22650;SDS011;11492;42.646;23.400;2023-06-10T04:28:43;21.30;;;10.02;;
22650;SDS011;11492;42.646;23.400;2023-06-10T04:31:09;17.50;;;8.75;;
22650;SDS011;11492;42.646;23.400;2023-06-10T04:33:35;22.33;;;8.45;;
22650;SDS011;11492;42.646;23.400;2023-06-10T04:36:00;16.67;;;8.25;;
22650;SDS011;11492;42.646;23.400;2023-06-10T04:38:26;15.98;;;8.20;;
22650;SDS011;11492;42.646;23.400;2023-06-10T04:40:52;16.67;;;8.32;;
22650;SDS011;11492;42.646;23.400;2023-06-10T04:43:17;19.88;;;8.52;;
22650;SDS011;11492;42.646;23.400;2023-06-10T04:45:43;16.08;;;8.43;;
22650;SDS011;11492;42.646;23.400;2023-06-10T04:48:09;16.63;;;9.32;;
22650;SDS011;11492;42.646;23.400;2023-06-10T04:50:36;18.52;;;9.38;;
22650;SDS011;11492;42.646;23.400;2023-06-10T04:53:01;15.98;;;8.65;;
22650;SDS011;11492;42.646;23.400;2023-06-10T04:55:27;16.75;;;9.38;;
22650;SDS011;11492;42.646;23.400;2023-06-10T04:57:52;15.63;;;8.98;;
22650;SDS011;11492;42.646;23.400;2023-06-10T05:00:18;15.25;;;9.25;;
22650;SDS011;11492;42.646;23.400;2023-06-10T05:02:43;17.48;;;9.77;;
22650;SDS011;11492;42.646;23.400;2023-06-10T05:05:09;12.88;;;9.02;;
22650;SDS011;11492;42.646;23.400;2023-06-10T05:07:36;15.27;;;9.82;;
22650;SDS011;11492;42.646;23.400;2023-06-10T05:10:01;12.88;;;9.25;;
22650;SDS011;11492;42.646;23.400;2023-06-10T05:12:28;14.15;;;9.25;;
22650;SDS011;11492;42.646;23.400;2023-06-10T05:14:53;17.33;;;9.40;;
22650;SDS011;11492;42.646;23.400;2023-06-10T05:17:19;17.98;;;9.82;;
22650;SDS011;11492;42.646;23.400;2023-06-10T05:19:44;18.35;;;9.93;;
22650;SDS011;11492;42.646;23.400;2023-06-10T05:22:09;16.27;;;10.25;;
22650;SDS011;11492;42.646;23.400;2023-06-10T05:24:35;17.30;;;9.77;;
22650;SDS011;11492;42.646;23.400;2023-06-10T05:27:00;16.33;;;9.57;;
22650;SDS011;11492;42.646;23.400;2023-06-10T05:29:26;14.73;;;9.75;;
22650;SDS011;11492;42.646;23.400;2023-06-10T05:31:51;18.85;;;10.38;;
22650;SDS011;11492;42.646;23.400;2023-06-10T05:34:17;14.25;;;10.23;;
22650;SDS011;11492;42.646;23.400;2023-06-10T05:36:43;16.85;;;10.52;;
22650;SDS011;11492;42.646;23.400;2023-06-10T05:39:09;19.02;;;9.88;;
22650;SDS011;11492;42.646;23.400;2023-06-10T05:41:35;18.48;;;10.40;;
22650;SDS011;11492;42.646;23.400;2023-06-10T05:44:00;18.77;;;10.18;;
22650;SDS011;11492;42.646;23.400;2023-06-10T05:46:25;20.40;;;11.00;;
22650;SDS011;11492;42.646;23.400;2023-06-10T05:48:51;13.85;;;9.60;;
22650;SDS011;11492;42.646;23.400;2023-06-10T05:51:16;14.52;;;10.25;;
22650;SDS011;11492;42.646;23.400;2023-06-10T05:53:42;20.02;;;10.30;;
22650;SDS011;11492;42.646;23.400;2023-06-10T05:56:07;14.88;;;8.85;;
22650;SDS011;11492;42.646;23.400;2023-06-10T05:58:33;15.40;;;9.40;;
22650;SDS011;11492;42.646;23.400;2023-06-10T06:00:58;17.08;;;9.35;;
22650;SDS011;11492;42.646;23.400;2023-06-10T06:03:24;13.60;;;8.77;;
22650;SDS011;11492;42.646;23.400;2023-06-10T06:05:49;16.67;;;9.13;;
22650;SDS011;11492;42.646;23.400;2023-06-10T06:08:15;16.92;;;9.40;;
22650;SDS011;11492;42.646;23.400;2023-06-10T06:10:43;21.13;;;9.50;;
22650;SDS011;11492;42.646;23.400;2023-06-10T06:13:09;19.60;;;10.30;;
22650;SDS011;11492;42.646;23.400;2023-06-10T06:15:35;13.65;;;9.93;;
22650;SDS011;11492;42.646;23.400;2023-06-10T06:18:00;15.40;;;10.32;;
22650;SDS011;11492;42.646;23.400;2023-06-10T06:20:26;22.15;;;10.45;;
22650;SDS011;11492;42.646;23.400;2023-06-10T06:22:51;18.30;;;12.27;;
22650;SDS011;11492;42.646;23.400;2023-06-10T06:25:17;25.98;;;12.63;;
22650;SDS011;11492;42.646;23.400;2023-06-10T06:27:42;18.58;;;12.20;;
22650;SDS011;11492;42.646;23.400;2023-06-10T06:30:08;17.80;;;12.27;;
22650;SDS011;11492;42.646;23.400;2023-06-10T06:32:33;21.42;;;11.98;;
22650;SDS011;11492;42.646;23.400;2023-06-10T06:34:59;25.67;;;12.65;;
22650;SDS011;11492;42.646;23.400;2023-06-10T06:37:25;27.83;;;12.85;;
22650;SDS011;11492;42.646;23.400;2023-06-10T06:39:51;19.25;;;12.77;;
22650;SDS011;11492;42.646;23.400;2023-06-10T06:42:17;21.00;;;12.45;;
22650;SDS011;11492;42.646;23.400;2023-06-10T06:44:42;18.35;;;13.30;;
22650;SDS011;11492;42.646;23.400;2023-06-10T06:47:08;23.25;;;12.18;;
22650;SDS011;11492;42.646;23.400;2023-06-10T06:49:34;24.33;;;11.55;;
22650;SDS011;11492;42.646;23.400;2023-06-10T06:51:59;18.75;;;12.73;;
22650;SDS011;11492;42.646;23.400;2023-06-10T06:54:25;21.35;;;12.48;;
22650;SDS011;11492;42.646;23.400;2023-06-10T06:56:50;18.05;;;10.95;;
22650;SDS011;11492;42.646;23.400;2023-06-10T06:59:16;22.33;;;11.75;;
22650;SDS011;11492;42.646;23.400;2023-06-10T07:01:44;25.70;;;11.68;;
22650;SDS011;11492;42.646;23.400;2023-06-10T07:04:09;21.27;;;12.05;;
22650;SDS011;11492;42.646;23.400;2023-06-10T07:06:35;17.45;;;11.38;;
22650;SDS011;11492;42.646;23.400;2023-06-10T07:09:01;25.15;;;11.40;;
22650;SDS011;11492;42.646;23.400;2023-06-10T07:11:27;17.52;;;10.00;;
22650;SDS011;11492;42.646;23.400;2023-06-10T07:13:52;25.25;;;10.40;;
22650;SDS011;11492;42.646;23.400;2023-06-10T07:16:18;17.15;;;10.52;;
22650;SDS011;11492;42.646;23.400;2023-06-10T07:18:45;18.38;;;8.73;;
22650;SDS011;11492;42.646;23.400;2023-06-10T07:21:11;20.40;;;9.05;;
22650;SDS011;11492;42.646;23.400;2023-06-10T07:23:36;16.63;;;8.93;;
22650;SDS011;11492;42.646;23.400;2023-06-10T07:26:02;14.10;;;6.90;;
22650;SDS011;11492;42.646;23.400;2023-06-10T07:28:27;17.85;;;8.52;;
22650;SDS011;11492;42.646;23.400;2023-06-10T07:30:53;13.48;;;7.90;;
22650;SDS011;11492;42.646;23.400;2023-06-10T07:33:18;18.65;;;8.23;;
22650;SDS011;11492;42.646;23.400;2023-06-10T07:35:44;18.00;;;9.18;;
22650;SDS011;11492;42.646;23.400;2023-06-10T07:38:09;16.50;;;8.98;;
22650;SDS011;11492;42.646;23.400;2023-06-10T07:40:34;19.15;;;8.27;;
22650;SDS011;11492;42.646;23.400;2023-06-10T07:43:00;17.00;;;8.30;;
22650;SDS011;11492;42.646;23.400;2023-06-10T07:45:25;18.00;;;8.68;;
22650;SDS011;11492;42.646;23.400;2023-06-10T07:47:52;16.30;;;8.55;;
22650;SDS011;11492;42.646;23.400;2023-06-10T07:50:18;22.45;;;9.38;;
22650;SDS011;11492;42.646;23.400;2023-06-10T07:52:43;19.80;;;8.88;;
22650;SDS011;11492;42.646;23.400;2023-06-10T07:55:08;18.50;;;7.93;;
22650;SDS011;11492;42.646;23.400;2023-06-10T07:57:34;19.00;;;7.47;;
22650;SDS011;11492;42.646;23.400;2023-06-10T08:00:02;13.98;;;6.82;;
22650;SDS011;11492;42.646;23.400;2023-06-10T08:02:29;17.55;;;7.00;;
22650;SDS011;11492;42.646;23.400;2023-06-10T08:04:55;13.80;;;6.57;;
22650;SDS011;11492;42.646;23.400;2023-06-10T08:07:20;13.57;;;5.88;;
22650;SDS011;11492;42.646;23.400;2023-06-10T08:09:47;16.48;;;5.65;;
22650;SDS011;11492;42.646;23.400;2023-06-10T08:12:12;13.52;;;5.05;;
22650;SDS011;11492;42.646;23.400;2023-06-10T08:14:38;14.55;;;4.57;;
22650;SDS011;11492;42.646;23.400;2023-06-10T08:17:04;17.17;;;4.40;;
22650;SDS011;11492;42.646;23.400;2023-06-10T08:19:31;9.07;;;4.78;;
22650;SDS011;11492;42.646;23.400;2023-06-10T08:21:56;10.73;;;4.68;;
22650;SDS011;11492;42.646;23.400;2023-06-10T08:24:22;10.43;;;4.38;;
22650;SDS011;11492;42.646;23.400;2023-06-10T08:26:47;7.78;;;3.80;;
22650;SDS011;11492;42.646;23.400;2023-06-10T08:29:12;7.57;;;3.90;;
22650;SDS011;11492;42.646;23.400;2023-06-10T08:31:41;9.18;;;3.55;;
22650;SDS011;11492;42.646;23.400;2023-06-10T08:34:09;8.70;;;3.75;;
22650;SDS011;11492;42.646;23.400;2023-06-10T08:36:35;9.35;;;3.50;;
22650;SDS011;11492;42.646;23.400;2023-06-10T08:39:00;7.53;;;3.58;;
22650;SDS011;11492;42.646;23.400;2023-06-10T08:41:28;8.45;;;3.85;;
22650;SDS011;11492;42.646;23.400;2023-06-10T08:44:12;9.25;;;4.07;;
22650;SDS011;11492;42.646;23.400;2023-06-10T08:46:47;8.93;;;3.10;;
22650;SDS011;11492;42.646;23.400;2023-06-10T08:49:15;12.98;;;3.25;;
22650;SDS011;11492;42.646;23.400;2023-06-10T08:51:46;19.63;;;12.02;;
22650;SDS011;11492;42.646;23.400;2023-06-10T08:54:17;7.03;;;3.30;;
22650;SDS011;11492;42.646;23.400;2023-06-10T08:56:45;7.10;;;3.47;;
22650;SDS011;11492;42.646;23.400;2023-06-10T08:59:15;7.43;;;3.80;;
22650;SDS011;11492;42.646;23.400;2023-06-10T09:01:41;9.20;;;3.15;;
22650;SDS011;11492;42.646;23.400;2023-06-10T09:04:08;7.82;;;2.95;;
22650;SDS011;11492;42.646;23.400;2023-06-10T09:06:34;6.07;;;3.08;;
22650;SDS011;11492;42.646;23.400;2023-06-10T09:09:01;5.97;;;3.42;;
22650;SDS011;11492;42.646;23.400;2023-06-10T09:11:27;10.30;;;3.20;;
22650;SDS011;11492;42.646;23.400;2023-06-10T09:13:53;6.43;;;3.30;;
22650;SDS011;11492;42.646;23.400;2023-06-10T09:16:19;5.50;;;3.25;;
22650;SDS011;11492;42.646;23.400;2023-06-10T09:18:44;7.88;;;3.38;;
22650;SDS011;11492;42.646;23.400;2023-06-10T09:21:10;12.10;;;3.42;;
22650;SDS011;11492;42.646;23.400;2023-06-10T09:23:36;9.40;;;3.40;;
22650;SDS011;11492;42.646;23.400;2023-06-10T09:26:02;7.78;;;3.08;;
22650;SDS011;11492;42.646;23.400;2023-06-10T09:28:30;6.72;;;2.78;;
22650;SDS011;11492;42.646;23.400;2023-06-10T09:31:02;8.10;;;3.15;;
22650;SDS011;11492;42.646;23.400;2023-06-10T09:33:32;8.02;;;3.13;;
22650;SDS011;11492;42.646;23.400;2023-06-10T09:35:57;7.57;;;3.35;;
22650;SDS011;11492;42.646;23.400;2023-06-10T09:38:29;5.10;;;3.15;;
22650;SDS011;11492;42.646;23.400;2023-06-10T09:40:56;5.93;;;2.75;;
22650;SDS011;11492;42.646;23.400;2023-06-10T09:43:22;6.70;;;3.00;;
22650;SDS011;11492;42.646;23.400;2023-06-10T09:45:48;6.45;;;3.17;;
22650;SDS011;11492;42.646;23.400;2023-06-10T09:48:21;4.55;;;2.90;;
22650;SDS011;11492;42.646;23.400;2023-06-10T09:50:48;11.80;;;2.70;;
22650;SDS011;11492;42.646;23.400;2023-06-10T09:53:14;6.63;;;3.00;;
22650;SDS011;11492;42.646;23.400;2023-06-10T09:55:42;7.22;;;3.47;;
22650;SDS011;11492;42.646;23.400;2023-06-10T09:58:09;8.13;;;3.22;;
22650;SDS011;11492;42.646;23.400;2023-06-10T10:00:34;5.45;;;2.95;;
22650;SDS011;11492;42.646;23.400;2023-06-10T10:03:00;5.78;;;2.95;;
22650;SDS011;11492;42.646;23.400;2023-06-10T10:05:26;12.50;;;4.50;;
22650;SDS011;11492;42.646;23.400;2023-06-10T10:07:52;7.28;;;3.35;;
22650;SDS011;11492;42.646;23.400;2023-06-10T10:10:18;7.35;;;3.20;;
22650;SDS011;11492;42.646;23.400;2023-06-10T10:12:48;4.47;;;2.50;;
22650;SDS011;11492;42.646;23.400;2023-06-10T10:15:18;16.77;;;3.13;;
22650;SDS011;11492;42.646;23.400;2023-06-10T10:17:52;11.15;;;2.90;;
22650;SDS011;11492;42.646;23.400;2023-06-10T10:20:22;8.55;;;3.10;;
22650;SDS011;11492;42.646;23.400;2023-06-10T10:22:51;8.55;;;2.95;;
22650;SDS011;11492;42.646;23.400;2023-06-10T10:25:23;5.50;;;3.30;;
22650;SDS011;11492;42.646;23.400;2023-06-10T10:27:58;10.82;;;4.72;;
22650;SDS011;11492;42.646;23.400;2023-06-10T10:30:30;11.35;;;5.03;;
22650;SDS011;11492;42.646;23.400;2023-06-10T10:33:00;13.15;;;7.68;;
22650;SDS011;11492;42.646;23.400;2023-06-10T10:35:31;7.22;;;4.15;;
22650;SDS011;11492;42.646;23.400;2023-06-10T10:37:58;6.78;;;3.00;;
22650;SDS011;11492;42.646;23.400;2023-06-10T10:40:24;6.85;;;3.03;;
22650;SDS011;11492;42.646;23.400;2023-06-10T10:42:51;8.90;;;2.65;;
22650;SDS011;11492;42.646;23.400;2023-06-10T10:45:17;5.43;;;2.35;;
22650;SDS011;11492;42.646;23.400;2023-06-10T10:47:44;4.97;;;2.70;;
22650;SDS011;11492;42.646;23.400;2023-06-10T10:55:22;4.43;;;2.80;;
22650;SDS011;11492;42.646;23.400;2023-06-10T10:57:57;4.38;;;2.63;;
22650;SDS011;11492;42.646;23.400;2023-06-10T11:00:34;8.57;;;2.83;;
22650;SDS011;11492;42.646;23.400;2023-06-10T11:03:07;4.85;;;2.80;;
22650;SDS011;11492;42.646;23.400;2023-06-10T11:05:41;7.28;;;2.97;;
22650;SDS011;11492;42.646;23.400;2023-06-10T11:08:10;9.13;;;2.67;;
22650;SDS011;11492;42.646;23.400;2023-06-10T11:13:15;3.53;;;2.70;;
22650;SDS011;11492;42.646;23.400;2023-06-10T11:15:44;7.30;;;3.10;;
22650;SDS011;11492;42.646;23.400;2023-06-10T11:31:18;6.50;;;2.42;;
22650;SDS011;11492;42.646;23.400;2023-06-10T11:33:46;6.80;;;3.20;;
22650;SDS011;11492;42.646;23.400;2023-06-10T11:36:12;10.38;;;3.30;;
22650;SDS011;11492;42.646;23.400;2023-06-10T11:38:38;5.80;;;3.00;;
22650;SDS011;11492;42.646;23.400;2023-06-10T11:41:05;5.10;;;2.63;;
22650;SDS011;11492;42.646;23.400;2023-06-10T11:43:30;6.03;;;2.83;;
22650;SDS011;11492;42.646;23.400;2023-06-10T11:45:56;6.70;;;3.00;;
22650;SDS011;11492;42.646;23.400;2023-06-10T11:48:22;2.58;;;2.35;;
22650;SDS011;11492;42.646;23.400;2023-06-10T11:50:47;6.05;;;2.67;;
22650;SDS011;11492;42.646;23.400;2023-06-10T11:53:12;4.57;;;2.70;;
22650;SDS011;11492;42.646;23.400;2023-06-10T11:55:41;4.93;;;2.60;;
22650;SDS011;11492;42.646;23.400;2023-06-10T12:00:54;6.78;;;2.95;;
22650;SDS011;11492;42.646;23.400;2023-06-10T12:03:24;4.82;;;2.53;;
22650;SDS011;11492;42.646;23.400;2023-06-10T12:06:00;3.78;;;2.65;;
22650;SDS011;11492;42.646;23.400;2023-06-10T12:08:27;4.35;;;2.70;;
22650;SDS011;11492;42.646;23.400;2023-06-10T12:10:53;16.20;;;2.90;;
22650;SDS011;11492;42.646;23.400;2023-06-10T12:13:20;9.55;;;2.70;;
22650;SDS011;11492;42.646;23.400;2023-06-10T12:15:46;3.55;;;2.60;;
22650;SDS011;11492;42.646;23.400;2023-06-10T12:18:19;5.90;;;2.78;;
22650;SDS011;11492;42.646;23.400;2023-06-10T12:23:12;5.97;;;2.85;;
22650;SDS011;11492;42.646;23.400;2023-06-10T12:25:38;6.90;;;2.60;;
22650;SDS011;11492;42.646;23.400;2023-06-10T12:28:04;3.92;;;2.50;;
22650;SDS011;11492;42.646;23.400;2023-06-10T12:30:31;3.95;;;2.60;;
22650;SDS011;11492;42.646;23.400;2023-06-10T12:32:58;5.28;;;2.70;;
22650;SDS011;11492;42.646;23.400;2023-06-10T12:35:24;5.78;;;2.45;;
22650;SDS011;11492;42.646;23.400;2023-06-10T12:38:09;5.75;;;2.63;;
22650;SDS011;11492;42.646;23.400;2023-06-10T12:40:37;3.30;;;2.20;;
22650;SDS011;11492;42.646;23.400;2023-06-10T12:43:05;6.10;;;2.58;;
22650;SDS011;11492;42.646;23.400;2023-06-10T12:45:31;4.40;;;2.75;;
22650;SDS011;11492;42.646;23.400;2023-06-10T12:48:11;4.57;;;2.65;;
22650;SDS011;11492;42.646;23.400;2023-06-10T12:53:19;5.90;;;3.30;;
22650;SDS011;11492;42.646;23.400;2023-06-10T12:55:45;6.15;;;2.85;;
22650;SDS011;11492;42.646;23.400;2023-06-10T12:58:11;6.85;;;2.80;;
22650;SDS011;11492;42.646;23.400;2023-06-10T13:00:37;5.72;;;2.58;;
22650;SDS011;11492;42.646;23.400;2023-06-10T13:03:03;5.70;;;2.63;;
22650;SDS011;11492;42.646;23.400;2023-06-10T13:05:30;9.18;;;2.63;;
22650;SDS011;11492;42.646;23.400;2023-06-10T13:07:57;5.65;;;3.05;;
22650;SDS011;11492;42.646;23.400;2023-06-10T13:10:23;5.95;;;2.92;;
22650;SDS011;11492;42.646;23.400;2023-06-10T13:12:49;6.25;;;2.80;;
22650;SDS011;11492;42.646;23.400;2023-06-10T13:15:15;4.65;;;3.05;;
22650;SDS011;11492;42.646;23.400;2023-06-10T13:17:42;4.35;;;2.92;;
22650;SDS011;11492;42.646;23.400;2023-06-10T13:20:13;7.80;;;2.92;;
22650;SDS011;11492;42.646;23.400;2023-06-10T13:22:41;4.05;;;2.85;;
22650;SDS011;11492;42.646;23.400;2023-06-10T13:25:07;4.97;;;3.58;;
22650;SDS011;11492;42.646;23.400;2023-06-10T13:27:33;8.73;;;3.25;;
22650;SDS011;11492;42.646;23.400;2023-06-10T13:29:59;6.75;;;3.17;;
22650;SDS011;11492;42.646;23.400;2023-06-10T13:32:24;4.85;;;2.72;;
22650;SDS011;11492;42.646;23.400;2023-06-10T13:34:50;6.43;;;2.70;;
22650;SDS011;11492;42.646;23.400;2023-06-10T13:37:15;6.47;;;2.60;;
22650;SDS011;11492;42.646;23.400;2023-06-10T13:39:44;6.85;;;2.95;;
22650;SDS011;11492;42.646;23.400;2023-06-10T13:42:12;7.05;;;3.17;;
22650;SDS011;11492;42.646;23.400;2023-06-10T13:44:37;6.78;;;3.13;;
22650;SDS011;11492;42.646;23.400;2023-06-10T13:47:03;13.02;;;3.80;;
22650;SDS011;11492;42.646;23.400;2023-06-10T13:49:28;8.90;;;3.67;;
22650;SDS011;11492;42.646;23.400;2023-06-10T13:51:54;10.30;;;3.70;;
22650;SDS011;11492;42.646;23.400;2023-06-10T13:54:19;10.23;;;3.60;;
22650;SDS011;11492;42.646;23.400;2023-06-10T13:56:46;4.88;;;3.35;;
22650;SDS011;11492;42.646;23.400;2023-06-10T13:59:11;6.03;;;4.40;;
22650;SDS011;11492;42.646;23.400;2023-06-10T14:01:38;7.35;;;3.60;;
22650;SDS011;11492;42.646;23.400;2023-06-10T14:04:05;8.85;;;4.20;;
22650;SDS011;11492;42.646;23.400;2023-06-10T14:06:31;9.45;;;3.72;;
22650;SDS011;11492;42.646;23.400;2023-06-10T14:08:58;5.82;;;3.75;;
22650;SDS011;11492;42.646;23.400;2023-06-10T14:11:24;9.65;;;3.70;;
22650;SDS011;11492;42.646;23.400;2023-06-10T14:13:49;7.35;;;3.60;;
22650;SDS011;11492;42.646;23.400;2023-06-10T14:16:14;9.25;;;3.40;;
22650;SDS011;11492;42.646;23.400;2023-06-10T14:18:40;6.07;;;3.83;;
22650;SDS011;11492;42.646;23.400;2023-06-10T14:21:05;9.40;;;3.83;;
22650;SDS011;11492;42.646;23.400;2023-06-10T14:23:31;6.45;;;4.07;;
22650;SDS011;11492;42.646;23.400;2023-06-10T14:25:56;6.75;;;3.60;;
22650;SDS011;11492;42.646;23.400;2023-06-10T14:28:21;5.95;;;3.80;;
22650;SDS011;11492;42.646;23.400;2023-06-10T14:30:48;8.10;;;3.80;;
22650;SDS011;11492;42.646;23.400;2023-06-10T14:33:14;9.25;;;4.00;;
22650;SDS011;11492;42.646;23.400;2023-06-10T14:35:40;7.05;;;4.13;;
22650;SDS011;11492;42.646;23.400;2023-06-10T14:38:05;9.48;;;4.07;;
22650;SDS011;11492;42.646;23.400;2023-06-10T14:40:31;8.05;;;4.03;;
22650;SDS011;11492;42.646;23.400;2023-06-10T14:42:57;6.30;;;3.90;;
22650;SDS011;11492;42.646;23.400;2023-06-10T14:45:22;8.43;;;3.90;;
22650;SDS011;11492;42.646;23.400;2023-06-10T14:47:47;8.73;;;3.70;;
22650;SDS011;11492;42.646;23.400;2023-06-10T14:50:13;5.93;;;3.83;;
22650;SDS011;11492;42.646;23.400;2023-06-10T14:52:38;8.07;;;4.10;;
22650;SDS011;11492;42.646;23.400;2023-06-10T14:55:04;5.90;;;3.70;;
22650;SDS011;11492;42.646;23.400;2023-06-10T14:57:30;10.05;;;4.00;;